createdAt,value
2018-02-20T00:00:58.349Z,20.10
2018-02-20T00:03:24.694Z,20.63
2018-02-20T00:05:50.975Z,20.27
2018-02-20T00:08:17.355Z,20.90
2018-02-20T00:10:46.945Z,20.83
2018-02-20T00:13:13.216Z,21.67
2018-02-20T00:15:41.553Z,18.23
2018-02-20T00:18:08.487Z,20.03
2018-02-20T00:20:34.677Z,19.23
2018-02-20T00:23:02.873Z,20.13
2018-02-20T00:25:29.112Z,19.80
2018-02-20T00:27:55.373Z,21.23
2018-02-20T00:30:21.625Z,19.80
2018-02-20T00:32:47.896Z,21.07
2018-02-20T00:35:14.979Z,21.37
2018-02-20T00:37:45.334Z,21.17
2018-02-20T00:40:12.749Z,18.93
2018-02-20T00:42:39.070Z,20.93
2018-02-20T00:45:05.342Z,18.07
2018-02-20T00:47:31.695Z,21.53
2018-02-20T00:49:59.838Z,20.37
2018-02-20T00:52:26.126Z,21.13
2018-02-20T00:54:53.117Z,20.70
2018-02-20T00:57:19.499Z,21.63
2018-02-20T00:59:45.734Z,18.97
2018-02-20T01:02:12.120Z,20.70
2018-02-20T01:04:39.137Z,22.13
2018-02-20T01:07:05.387Z,20.83
2018-02-20T01:09:31.633Z,19.60
2018-02-20T01:11:57.935Z,22.40
2018-02-20T01:14:24.207Z,20.87
2018-02-20T01:17:10.346Z,22.80
2018-02-20T01:19:36.642Z,21.90
2018-02-20T01:22:02.961Z,21.27
2018-02-20T01:24:29.285Z,21.93
2018-02-20T01:26:56.313Z,20.70
2018-02-20T01:29:22.578Z,20.80
2018-02-20T01:31:49.419Z,18.43
2018-02-20T01:34:15.700Z,18.80
2018-02-20T01:36:46.289Z,18.83
2018-02-20T01:39:12.549Z,19.37
2018-02-20T01:41:40.928Z,18.27
2018-02-20T01:44:07.173Z,16.37
2018-02-20T01:46:33.444Z,17.80
2018-02-20T01:49:07.028Z,21.37
2018-02-20T01:51:33.332Z,19.73
2018-02-20T01:53:59.647Z,21.23
2018-02-20T01:56:26.620Z,21.97
2018-02-20T01:58:52.880Z,19.37
2018-02-20T02:01:19.156Z,20.47
2018-02-20T02:03:45.411Z,19.77
2018-02-20T02:06:11.677Z,20.93
2018-02-20T02:08:38.002Z,20.13
2018-02-20T02:11:04.273Z,21.77
2018-02-20T02:13:30.520Z,21.90
2018-02-20T02:15:56.728Z,18.67
2018-02-20T02:18:23.740Z,21.47
2018-02-20T02:20:50.770Z,21.60
2018-02-20T02:23:18.063Z,21.67
2018-02-20T02:25:44.305Z,22.13
2018-02-20T02:28:10.575Z,22.43
2018-02-20T02:30:36.803Z,20.60
2018-02-20T02:33:03.036Z,20.90
2018-02-20T02:35:29.259Z,20.20
2018-02-20T02:37:55.532Z,21.67
2018-02-20T02:40:21.756Z,22.43
2018-02-20T02:42:54.689Z,23.97
2018-02-20T02:45:20.989Z,23.20
2018-02-20T02:47:47.242Z,22.57
2018-02-20T02:50:14.365Z,22.17
2018-02-20T02:52:40.615Z,22.60
2018-02-20T02:55:06.863Z,23.27
2018-02-20T02:57:33.117Z,21.40
2018-02-20T02:59:59.445Z,21.43
2018-02-20T03:02:33.514Z,22.90
2018-02-20T03:04:59.845Z,23.17
2018-02-20T03:07:26.176Z,22.27
2018-02-20T03:09:52.438Z,22.33
2018-02-20T03:12:18.779Z,21.30
2018-02-20T03:14:45.818Z,20.93
2018-02-20T03:17:12.040Z,22.23
2018-02-20T03:19:38.364Z,21.37
2018-02-20T03:22:05.343Z,22.07
2018-02-20T03:24:31.593Z,21.93
2018-02-20T03:26:59.873Z,21.80
2018-02-20T03:29:26.127Z,22.43
2018-02-20T03:32:02.533Z,21.63
2018-02-20T03:34:28.781Z,22.70
2018-02-20T03:36:55.140Z,22.10
2018-02-20T03:39:24.975Z,20.90
2018-02-20T03:41:58.782Z,21.77
2018-02-20T03:44:25.017Z,21.03
2018-02-20T03:46:51.259Z,21.83
2018-02-20T03:49:18.309Z,21.43
2018-02-20T03:51:44.552Z,22.57
2018-02-20T03:54:14.918Z,22.33
2018-02-20T03:56:41.913Z,21.03
2018-02-20T03:59:08.160Z,19.97
2018-02-20T04:01:34.414Z,21.40
2018-02-20T04:04:00.677Z,21.73
2018-02-20T04:06:26.945Z,21.60
2018-02-20T04:08:54.015Z,21.80
2018-02-20T04:11:20.303Z,21.13
2018-02-20T04:13:46.566Z,21.73
2018-02-20T04:16:12.839Z,20.40
2018-02-20T04:18:39.093Z,23.00
2018-02-20T04:21:05.343Z,22.67
2018-02-20T04:23:31.655Z,22.80
2018-02-20T04:25:57.904Z,24.03
2018-02-20T04:28:24.192Z,22.97
2018-02-20T04:30:50.499Z,22.70
2018-02-20T04:33:16.690Z,23.50
2018-02-20T04:35:42.973Z,20.77
2018-02-20T04:38:09.256Z,22.53
2018-02-20T04:40:35.501Z,22.83
2018-02-20T04:43:01.763Z,22.17
2018-02-20T04:45:27.996Z,22.77
2018-02-20T04:47:54.283Z,20.70
2018-02-20T04:50:20.583Z,21.73
2018-02-20T04:52:46.859Z,20.73
2018-02-20T04:55:13.100Z,21.67
2018-02-20T04:57:40.117Z,20.77
2018-02-20T05:00:06.359Z,21.13
2018-02-20T05:02:33.464Z,21.87
2018-02-20T05:05:00.473Z,23.37
2018-02-20T05:07:26.713Z,21.20
2018-02-20T05:10:13.704Z,21.83
2018-02-20T05:12:39.944Z,21.83
2018-02-20T05:15:06.199Z,21.20
2018-02-20T05:17:32.459Z,21.03
2018-02-20T05:19:58.725Z,21.60
2018-02-20T05:22:25.143Z,22.83
2018-02-20T05:24:51.528Z,23.23
2018-02-20T05:27:21.039Z,22.77
2018-02-20T05:29:47.313Z,22.43
2018-02-20T05:32:13.631Z,22.60
2018-02-20T05:34:39.876Z,23.43
2018-02-20T05:37:06.858Z,22.73
2018-02-20T05:39:33.156Z,22.73
2018-02-20T05:41:59.407Z,23.10
2018-02-20T05:44:25.687Z,23.60
2018-02-20T05:46:51.952Z,22.43
2018-02-20T05:49:18.238Z,23.30
2018-02-20T05:51:44.450Z,22.87
2018-02-20T05:54:10.707Z,22.90
2018-02-20T05:56:36.942Z,22.33
2018-02-20T05:59:03.184Z,22.43
2018-02-20T06:01:29.467Z,21.60
2018-02-20T06:03:56.486Z,21.60
2018-02-20T06:06:22.769Z,23.53
2018-02-20T06:08:49.279Z,23.90
2018-02-20T06:11:15.658Z,24.20
2018-02-20T06:13:41.932Z,23.63
2018-02-20T06:16:08.211Z,23.93
2018-02-20T06:18:34.470Z,23.57
2018-02-20T06:21:00.711Z,24.00
2018-02-20T06:23:27.006Z,23.80
2018-02-20T06:25:53.299Z,21.63
2018-02-20T06:28:20.371Z,23.83
2018-02-20T06:30:47.411Z,23.03
2018-02-20T06:33:13.634Z,23.77
2018-02-20T06:35:45.904Z,24.47
2018-02-20T06:38:12.172Z,22.27
2018-02-20T06:40:38.399Z,25.77
2018-02-20T06:43:04.725Z,24.77
2018-02-20T06:45:30.993Z,27.13
2018-02-20T06:47:57.294Z,26.20
2018-02-20T06:50:23.575Z,24.17
2018-02-20T06:53:09.570Z,25.27
2018-02-20T06:55:35.832Z,25.00
2018-02-20T06:58:02.049Z,21.17
2018-02-20T07:00:28.315Z,26.13
2018-02-20T07:02:54.568Z,26.93
2018-02-20T07:05:21.745Z,25.43
2018-02-20T07:07:48.711Z,25.13
2018-02-20T07:10:14.967Z,25.03
2018-02-20T07:12:41.268Z,26.50
2018-02-20T07:15:08.624Z,25.83
2018-02-20T07:17:41.824Z,25.33
2018-02-20T07:20:08.156Z,25.90
2018-02-20T07:22:34.417Z,24.30
2018-02-20T07:25:00.667Z,26.17
2018-02-20T07:27:27.697Z,27.20
2018-02-20T07:29:54.000Z,25.73
2018-02-20T07:32:20.375Z,25.60
2018-02-20T07:34:46.646Z,27.07
2018-02-20T07:37:12.952Z,26.37
2018-02-20T07:39:39.263Z,23.50
2018-02-20T07:42:06.329Z,25.63
2018-02-20T07:44:32.583Z,24.13
2018-02-20T07:46:58.888Z,27.57
2018-02-20T07:49:25.115Z,24.77
2018-02-20T07:51:51.546Z,26.73
2018-02-20T07:54:17.833Z,24.17
2018-02-20T07:56:44.091Z,23.50
2018-02-20T07:59:10.369Z,27.47
2018-02-20T08:01:37.355Z,27.57
2018-02-20T08:04:03.619Z,29.27
2018-02-20T08:06:29.946Z,27.97
2018-02-20T08:08:56.977Z,27.00
2018-02-20T08:11:23.247Z,27.43
2018-02-20T08:13:50.266Z,27.87
2018-02-20T08:16:16.602Z,24.80
2018-02-20T08:18:42.930Z,29.10
2018-02-20T08:21:09.136Z,28.90
2018-02-20T08:23:36.134Z,29.00
2018-02-20T08:26:02.393Z,27.63
2018-02-20T08:28:28.658Z,27.27
2018-02-20T08:30:54.920Z,27.73
2018-02-20T08:33:21.960Z,29.20
2018-02-20T08:35:48.305Z,28.93
2018-02-20T08:38:14.570Z,28.70
2018-02-20T08:40:41.596Z,30.13
2018-02-20T08:43:07.823Z,28.20
2018-02-20T08:45:34.111Z,30.10
2018-02-20T08:48:01.217Z,28.80
2018-02-20T08:50:27.435Z,26.23
2018-02-20T08:52:53.841Z,25.50
2018-02-20T08:55:20.166Z,27.30
2018-02-20T08:57:46.462Z,31.10
2018-02-20T09:00:12.720Z,27.67
2018-02-20T09:02:38.985Z,29.30
2018-02-20T09:05:05.843Z,29.27
2018-02-20T09:07:32.912Z,30.80
2018-02-20T09:09:59.164Z,29.63
2018-02-20T09:12:25.474Z,28.30
2018-02-20T09:14:51.750Z,30.40
2018-02-20T09:17:18.036Z,31.47
2018-02-20T09:19:44.307Z,31.83
2018-02-20T09:22:15.265Z,29.93
2018-02-20T09:24:41.585Z,31.33
2018-02-20T09:27:07.873Z,29.43
2018-02-20T09:29:34.160Z,31.77
2018-02-20T09:32:00.369Z,32.40
2018-02-20T09:34:27.369Z,31.27
2018-02-20T09:36:53.636Z,33.93
2018-02-20T09:39:19.905Z,32.87
2018-02-20T09:41:46.854Z,33.27
2018-02-20T09:44:13.107Z,33.10
2018-02-20T09:46:40.205Z,31.73
2018-02-20T09:49:06.481Z,31.30
2018-02-20T09:51:32.803Z,32.10
2018-02-20T09:53:59.049Z,28.27
2018-02-20T09:56:25.392Z,32.17
2018-02-20T09:58:51.802Z,33.00
2018-02-20T10:01:18.120Z,34.07
2018-02-20T10:03:46.416Z,32.40
2018-02-20T10:06:12.684Z,34.57
2018-02-20T10:08:38.944Z,32.97
2018-02-20T10:11:05.228Z,32.10
2018-02-20T10:13:31.645Z,32.27
2018-02-20T10:15:58.003Z,31.93
2018-02-20T10:18:24.407Z,32.20
2018-02-20T10:20:50.719Z,31.40
2018-02-20T10:23:20.502Z,29.70
2018-02-20T10:25:46.734Z,33.63
2018-02-20T10:28:16.860Z,31.43
2018-02-20T10:30:43.148Z,32.23
2018-02-20T10:33:10.997Z,31.53
2018-02-20T10:35:37.338Z,29.80
2018-02-20T10:38:03.612Z,28.77
2018-02-20T10:40:33.447Z,27.47
2018-02-20T10:42:59.695Z,30.87
2018-02-20T10:45:26.712Z,28.47
2018-02-20T10:47:52.988Z,25.67
2018-02-20T10:50:20.031Z,28.53
2018-02-20T10:52:46.275Z,26.43
2018-02-20T10:55:12.670Z,27.03
2018-02-20T10:57:38.894Z,24.57
2018-02-20T11:00:05.171Z,28.00
2018-02-20T11:02:31.447Z,27.30
2018-02-20T11:04:57.719Z,26.90
2018-02-20T11:07:24.755Z,29.03
2018-02-20T11:09:51.027Z,29.53
2018-02-20T11:12:17.231Z,29.30
2018-02-20T11:14:43.476Z,24.87
2018-02-20T11:17:09.790Z,27.43
2018-02-20T11:19:36.025Z,28.30
2018-02-20T11:22:02.317Z,25.93
2018-02-20T11:24:28.755Z,27.43
2018-02-20T11:35:32.566Z,28.80
2018-02-20T11:37:58.815Z,30.37
2018-02-20T11:40:25.093Z,29.00
2018-02-20T11:42:51.355Z,29.07
2018-02-20T11:45:24.132Z,28.57
2018-02-20T11:47:50.414Z,29.63
2018-02-20T11:50:16.679Z,30.20
2018-02-20T11:52:43.746Z,30.53
2018-02-20T11:55:10.768Z,28.10
2018-02-20T11:57:37.786Z,25.43
2018-02-20T12:00:04.182Z,26.97
2018-02-20T12:02:30.475Z,30.60
2018-02-20T12:04:56.976Z,29.67
2018-02-20T12:07:23.526Z,30.90
2018-02-20T12:09:51.598Z,29.47
2018-02-20T12:12:17.883Z,30.07
2018-02-20T12:14:44.147Z,30.77
2018-02-20T12:17:10.617Z,30.37
2018-02-20T12:19:36.733Z,29.13
2018-02-20T12:22:03.044Z,28.37
2018-02-20T12:24:30.049Z,29.83
2018-02-20T12:27:17.542Z,30.67
2018-02-20T12:29:43.938Z,29.13
2018-02-20T12:32:10.206Z,31.83
2018-02-20T12:34:36.454Z,31.20
2018-02-20T12:37:02.717Z,30.53
2018-02-20T12:39:29.742Z,28.80
2018-02-20T12:41:55.997Z,29.57
2018-02-20T12:44:22.994Z,32.43
2018-02-20T12:46:50.276Z,32.40
2018-02-20T12:49:16.535Z,28.93
2018-02-20T12:51:42.794Z,31.27
2018-02-20T12:54:09.056Z,31.10
2018-02-20T12:56:36.118Z,30.73
2018-02-20T12:59:03.163Z,29.20
2018-02-20T13:01:29.450Z,28.07
2018-02-20T13:03:56.747Z,28.00
2018-02-20T13:06:23.038Z,29.07
2018-02-20T13:08:54.158Z,29.73
2018-02-20T13:11:26.689Z,30.13
2018-02-20T13:13:53.041Z,29.83
2018-02-20T13:16:19.479Z,30.73
2018-02-20T13:18:45.698Z,29.43
2018-02-20T13:21:12.727Z,30.73
2018-02-20T13:23:39.230Z,32.27
2018-02-20T13:26:06.585Z,28.73
2018-02-20T13:28:33.606Z,31.97
2018-02-20T13:30:59.863Z,31.80
2018-02-20T13:33:37.050Z,32.63
2018-02-20T13:36:03.346Z,29.00
2018-02-20T13:38:29.604Z,29.30
2018-02-20T13:40:55.888Z,31.27
2018-02-20T13:43:22.350Z,31.17
2018-02-20T13:45:49.475Z,31.40
2018-02-20T13:48:15.722Z,31.20
2018-02-20T13:50:42.005Z,31.27
2018-02-20T13:53:10.282Z,34.57
2018-02-20T13:55:37.293Z,31.07
2018-02-20T13:58:03.542Z,32.60
2018-02-20T14:00:30.525Z,31.53
2018-02-20T14:02:56.795Z,31.13
2018-02-20T14:05:23.084Z,30.33
2018-02-20T14:07:49.431Z,31.50
2018-02-20T14:10:15.704Z,31.97
2018-02-20T14:12:42.178Z,33.50
2018-02-20T14:15:08.449Z,31.83
2018-02-20T14:17:34.708Z,33.37
2018-02-20T14:20:00.997Z,30.40
2018-02-20T14:22:27.259Z,30.97
2018-02-20T14:24:53.565Z,29.57
2018-02-20T14:27:20.668Z,27.93
2018-02-20T14:29:47.691Z,28.57
2018-02-20T14:32:14.729Z,27.97
2018-02-20T14:34:40.937Z,27.90
2018-02-20T14:37:07.244Z,28.37
2018-02-20T14:39:33.531Z,26.43
2018-02-20T14:41:59.789Z,27.37
2018-02-20T14:44:26.095Z,27.57
2018-02-20T14:46:52.402Z,30.03
2018-02-20T14:49:19.451Z,26.70
2018-02-20T14:51:46.595Z,29.17
2018-02-20T14:54:12.915Z,30.97
2018-02-20T14:56:39.240Z,29.03
2018-02-20T14:59:05.627Z,29.20
2018-02-20T15:01:31.927Z,30.30
2018-02-20T15:03:58.204Z,30.83
2018-02-20T15:06:24.525Z,28.80
2018-02-20T15:08:52.647Z,30.30
2018-02-20T15:11:18.905Z,30.40
2018-02-20T15:13:45.998Z,32.83
2018-02-20T15:16:12.441Z,31.43
2018-02-20T15:18:38.743Z,30.20
2018-02-20T15:21:04.993Z,30.83
2018-02-20T15:23:32.227Z,29.63
2018-02-20T15:25:58.553Z,31.87
2018-02-20T15:28:24.856Z,32.27
2018-02-20T15:30:51.166Z,33.67
2018-02-20T15:33:17.511Z,32.70
2018-02-20T15:35:44.617Z,32.00
2018-02-20T15:38:10.915Z,34.37
2018-02-20T15:40:37.245Z,34.43
2018-02-20T15:43:03.579Z,36.83
2018-02-20T15:45:29.822Z,33.83
2018-02-20T15:47:56.126Z,34.03
2018-02-20T15:50:26.709Z,35.50
2018-02-20T15:52:52.993Z,34.80
2018-02-20T15:55:20.126Z,37.97
2018-02-20T15:57:47.259Z,38.50
2018-02-20T16:00:13.535Z,36.37
2018-02-20T16:02:39.798Z,37.37
2018-02-20T16:05:06.077Z,37.50
2018-02-20T16:07:32.424Z,36.60
2018-02-20T16:09:58.676Z,36.33
2018-02-20T16:12:26.049Z,36.17
2018-02-20T16:14:53.459Z,36.57
2018-02-20T16:17:20.551Z,37.43
2018-02-20T16:19:47.000Z,37.50
2018-02-20T16:22:13.305Z,37.23
2018-02-20T16:24:40.306Z,37.60
2018-02-20T16:27:06.624Z,37.13
2018-02-20T16:29:32.939Z,35.73
2018-02-20T16:31:59.168Z,35.30
2018-02-20T16:34:25.598Z,38.37
2018-02-20T16:36:51.934Z,38.03
2018-02-20T16:39:18.231Z,37.83
2018-02-20T16:41:45.213Z,39.00
2018-02-20T16:44:11.574Z,38.17
2018-02-20T16:46:38.038Z,38.20
2018-02-20T16:49:04.323Z,38.43
2018-02-20T16:51:30.550Z,41.30
2018-02-20T16:54:03.697Z,40.27
2018-02-20T16:56:29.959Z,39.87
2018-02-20T16:58:57.333Z,38.80
2018-02-20T17:01:23.647Z,39.53
2018-02-20T17:03:49.906Z,39.63
2018-02-20T17:06:16.234Z,39.43
2018-02-20T17:08:42.562Z,40.60
2018-02-20T17:11:08.892Z,39.30
2018-02-20T17:13:35.836Z,39.27
2018-02-20T17:16:02.859Z,40.07
2018-02-20T17:18:29.191Z,41.87
2018-02-20T17:20:55.536Z,39.83
2018-02-20T17:23:21.788Z,39.07
2018-02-20T17:25:48.135Z,42.20
2018-02-20T17:28:14.529Z,40.80
2018-02-20T17:30:47.287Z,40.33
2018-02-20T17:33:13.561Z,41.13
2018-02-20T17:35:40.679Z,40.87
2018-02-20T17:38:07.994Z,41.27
2018-02-20T17:40:34.306Z,42.33
2018-02-20T17:43:00.634Z,42.30
2018-02-20T17:45:26.923Z,40.43
2018-02-20T17:47:54.452Z,43.20
2018-02-20T17:50:20.710Z,42.10
2018-02-20T17:52:47.739Z,44.23
2018-02-20T17:55:14.038Z,41.50
2018-02-20T17:57:42.301Z,37.90
2018-02-20T18:00:09.413Z,41.50
2018-02-20T18:02:35.911Z,41.80
2018-02-20T18:05:06.996Z,40.40
2018-02-20T18:07:33.260Z,42.30
2018-02-20T18:09:59.566Z,43.43
2018-02-20T18:12:26.573Z,43.43
2018-02-20T18:14:52.930Z,44.43
2018-02-20T18:17:19.541Z,41.43
2018-02-20T18:19:46.097Z,40.83
2018-02-20T18:22:12.402Z,43.03
2018-02-20T18:24:38.717Z,41.87
2018-02-20T18:27:05.043Z,42.87
2018-02-20T18:29:31.327Z,43.23
2018-02-20T18:31:58.331Z,38.57
2018-02-20T18:34:24.668Z,41.57
2018-02-20T18:36:50.980Z,43.20
2018-02-20T18:39:18.027Z,42.00
2018-02-20T18:41:52.339Z,44.10
2018-02-20T18:44:19.432Z,40.80
2018-02-20T18:46:46.489Z,41.53
2018-02-20T18:49:13.552Z,41.00
2018-02-20T18:51:40.664Z,39.53
2018-02-20T18:54:07.080Z,43.33
2018-02-20T18:56:33.496Z,39.87
2018-02-20T18:59:00.549Z,42.00
2018-02-20T19:01:26.795Z,42.70
2018-02-20T19:03:53.103Z,43.70
2018-02-20T19:06:20.177Z,43.30
2018-02-20T19:08:46.510Z,41.60
2018-02-20T19:11:14.886Z,42.50
2018-02-20T19:13:41.467Z,41.33
2018-02-20T19:16:07.796Z,44.23
2018-02-20T19:18:34.063Z,43.87
2018-02-20T19:21:00.418Z,43.63
2018-02-20T19:23:27.453Z,44.50
2018-02-20T19:25:53.808Z,42.60
2018-02-20T19:28:20.200Z,44.93
2018-02-20T19:30:47.387Z,43.63
2018-02-20T19:33:17.718Z,43.23
2018-02-20T19:35:44.103Z,43.47
2018-02-20T19:38:11.107Z,45.00
2018-02-20T19:40:37.365Z,45.63
2018-02-20T19:43:03.695Z,41.00
2018-02-20T19:45:29.981Z,44.57
2018-02-20T19:47:57.114Z,45.50
2018-02-20T19:50:23.456Z,42.37
2018-02-20T19:52:49.835Z,45.10
2018-02-20T19:55:16.902Z,45.13
2018-02-20T19:57:43.960Z,43.07
2018-02-20T20:00:12.214Z,45.83
2018-02-20T20:02:39.255Z,46.80
2018-02-20T20:05:05.585Z,45.57
2018-02-20T20:07:31.960Z,46.23
2018-02-20T20:09:58.177Z,46.03
2018-02-20T20:12:24.486Z,46.40
2018-02-20T20:14:50.794Z,43.10
2018-02-20T20:17:19.476Z,44.87
2018-02-20T20:19:45.729Z,47.37
2018-02-20T20:22:12.081Z,48.10
2018-02-20T20:24:38.342Z,45.17
2018-02-20T20:27:05.424Z,46.07
2018-02-20T20:29:31.678Z,46.33
2018-02-20T20:31:57.932Z,46.20
2018-02-20T20:34:38.322Z,44.67
2018-02-20T20:37:04.552Z,44.13
2018-02-20T20:39:30.848Z,43.97
2018-02-20T20:41:57.881Z,45.80
2018-02-20T20:44:24.204Z,42.83
2018-02-20T20:46:50.502Z,45.80
2018-02-20T20:49:17.705Z,44.67
2018-02-20T20:51:43.964Z,44.47
2018-02-20T20:54:13.988Z,44.00
2018-02-20T20:56:40.242Z,44.73
2018-02-20T20:59:06.563Z,44.53
2018-02-20T21:01:33.526Z,46.50
2018-02-20T21:03:59.784Z,45.57
2018-02-20T21:06:26.045Z,46.17
2018-02-20T21:08:53.064Z,44.37
2018-02-20T21:11:20.630Z,44.27
2018-02-20T21:13:46.957Z,44.50
2018-02-20T21:16:14.312Z,47.17
2018-02-20T21:18:41.329Z,45.13
2018-02-20T21:21:07.694Z,42.93
2018-02-20T21:23:34.081Z,48.43
2018-02-20T21:26:00.357Z,47.30
2018-02-20T21:28:26.566Z,46.13
2018-02-20T21:30:52.848Z,47.23
2018-02-20T21:33:19.467Z,45.40
2018-02-20T21:38:41.002Z,45.60
2018-02-20T21:41:07.282Z,48.20
2018-02-20T21:43:33.609Z,45.13
2018-02-20T21:45:59.937Z,46.60
2018-02-20T21:48:47.185Z,45.30
2018-02-20T21:51:20.169Z,46.50
2018-02-20T21:53:46.543Z,46.00
2018-02-20T21:56:20.509Z,44.80
2018-02-20T21:58:47.536Z,46.37
2018-02-20T22:01:13.811Z,43.80
2018-02-20T22:06:36.138Z,43.67
2018-02-20T22:09:02.488Z,43.57
2018-02-20T22:11:41.564Z,44.70
2018-02-20T22:14:07.860Z,41.53
2018-02-20T22:16:40.388Z,42.70
2018-02-20T22:19:06.666Z,44.60
2018-02-20T22:21:33.730Z,45.67
2018-02-20T22:24:00.772Z,43.67
2018-02-20T22:26:28.137Z,44.57
2018-02-20T22:28:54.431Z,43.57
2018-02-20T22:31:20.715Z,44.60
2018-02-20T22:33:50.728Z,43.50
2018-02-20T22:36:17.033Z,44.97
2018-02-20T22:38:43.352Z,45.40
2018-02-20T22:41:10.354Z,46.67
2018-02-20T22:46:31.186Z,43.03
2018-02-20T22:48:57.452Z,43.57
2018-02-20T22:51:23.734Z,41.90
2018-02-20T22:53:50.750Z,43.47
2018-02-20T22:56:17.037Z,41.27
2018-02-20T22:58:44.021Z,43.50
2018-02-20T23:01:10.319Z,40.80
2018-02-20T23:03:36.596Z,43.83
2018-02-20T23:06:03.027Z,38.33
2018-02-20T23:08:30.130Z,41.07
2018-02-20T23:10:56.381Z,46.30
2018-02-20T23:13:22.650Z,41.43
2018-02-20T23:15:48.963Z,41.97
2018-02-20T23:18:15.217Z,42.63
2018-02-20T23:20:41.566Z,41.30
2018-02-20T23:23:15.993Z,39.53
2018-02-20T23:25:45.704Z,40.80
2018-02-20T23:28:15.300Z,40.93
2018-02-20T23:30:41.694Z,41.90
2018-02-20T23:33:08.016Z,41.30
2018-02-20T23:35:35.379Z,40.13
2018-02-20T23:38:01.621Z,41.00
2018-02-20T23:40:27.920Z,40.03
2018-02-20T23:42:54.959Z,39.43
2018-02-20T23:45:21.321Z,38.67
2018-02-20T23:47:48.377Z,39.73
2018-02-20T23:50:15.362Z,39.03
2018-02-20T23:52:41.668Z,39.87
2018-02-20T23:55:07.989Z,39.50
2018-02-20T23:57:34.214Z,38.07
